Hodgen, Oklahoma
Current Conditions -  °F | °C
As of 12:35 AM on Friday 31 Oct 2014 (Local Time) from KRKR Reporting Station
Clear Clear  
Wind Chill: 48°   Ceiling: Unl
Heat Index: 48°   Visibility: 10mi
Dew Point: 44°   Wind: 0mph
Humidity: 86%   Direction: NA
Pressure: 30.13"   Gusts: NA
Location:  34.84°N, 94.63°W
Report Text: KRKR 310535Z AUTO 00000KT 10SM CLR 09/07 A3013 RMK AO2 T00910068
Loading
Personal Weather Stations






























Interactive Weather Map
Tropical Storm Tracking
New forecast layout! Learn more

10-Day Weather Forecast

Advertisements
Track Severe Weather on mobile